Time;durP1;ratioP1;P1;durP2;ratioP2;P2;SDS_P1;SDS_P2;PMS_P1;PMS_P2;Temp;Humidity;BMP_temperature;BMP_pressure;BME280_temperature;BME280_humidity;BME280_pressure;Samples;Min_cycle;Max_cycle;Signal;HPM_P1;HPM_P2
2021/09/30 00:01:13;;;;;;;15.10;13.90;;;8.50;99.90;;;;;;5058996;28;20466;-69
2021/09/30 00:03:40;;;;;;;14.20;13.30;;;8.50;99.90;;;;;;5061339;28;20554;-69
2021/09/30 00:06:07;;;;;;;14.80;13.73;;;8.50;99.90;;;;;;5061747;28;20480;-70
2021/09/30 00:08:36;;;;;;;14.73;13.93;;;8.50;99.90;;;;;;5057547;28;21084;-69
2021/09/30 00:11:10;;;;;;;15.37;14.37;;;8.50;99.90;;;;;;5059020;28;20495;-73
2021/09/30 00:13:44;;;;;;;15.23;14.10;;;8.50;99.90;;;;;;5053992;28;20944;-70
2021/09/30 00:33:04;;;;;;;14.27;13.47;;;8.50;99.90;;;;;;5061954;28;20871;-69
2021/09/30 00:35:39;;;;;;;13.77;12.97;;;8.50;99.90;;;;;;5067165;28;20451;-69
2021/09/30 00:41:08;;;;;;;14.20;13.30;;;8.50;99.90;;;;;;5060198;28;20451;-69
2021/09/30 00:46:25;;;;;;;14.67;13.77;;;8.50;99.90;;;;;;5060289;28;20443;-69
2021/09/30 00:49:01;;;;;;;17.20;14.40;;;8.50;99.90;;;;;;5067233;28;20522;-72
2021/09/30 00:51:35;;;;;;;13.57;12.77;;;8.50;99.90;;;;;;5066889;28;20965;-70
2021/09/30 00:54:32;;;;;;;14.40;13.30;;;8.60;99.90;;;;;;5066216;28;20455;-72
2021/09/30 02:18:43;;;;;;;15.43;14.33;;;8.30;99.90;;;;;;5015633;28;20455;-69
2021/09/30 02:21:39;;;;;;;15.97;14.50;;;8.20;99.90;;;;;;5015824;28;21010;-70
2021/09/30 02:29:45;;;;;;;15.37;14.30;;;8.30;99.90;;;;;;5058378;28;20444;-69
2021/09/30 03:00:19;;;;;;;14.93;13.83;;;8.10;99.90;;;;;;5059386;28;20495;-69
2021/09/30 03:02:53;;;;;;;16.20;14.93;;;8.10;99.90;;;;;;5060508;28;20469;-72
2021/09/30 03:05:22;;;;;;;16.27;14.43;;;8.00;99.90;;;;;;5062590;28;20817;-69
2021/09/30 03:07:53;;;;;;;17.57;14.33;;;8.10;99.90;;;;;;5057558;28;20504;-69
2021/09/30 03:10:22;;;;;;;15.20;14.00;;;8.00;99.90;;;;;;5065131;28;20918;-69
2021/09/30 03:12:51;;;;;;;15.63;14.27;;;8.00;99.90;;;;;;5061477;28;20498;-69
2021/09/30 03:15:29;;;;;;;14.53;13.73;;;8.00;99.90;;;;;;5059487;28;20482;-69
2021/09/30 03:18:12;;;;;;;16.13;14.67;;;8.00;99.90;;;;;;5060307;28;20450;-71
2021/09/30 03:20:45;;;;;;;16.33;15.13;;;8.00;99.90;;;;;;5060288;28;20869;-69
2021/09/30 03:23:14;;;;;;;15.73;14.63;;;8.00;99.90;;;;;;5059083;28;20456;-72
2021/09/30 03:25:46;;;;;;;17.60;14.47;;;8.00;99.90;;;;;;5061197;28;20549;-69
2021/09/30 03:28:14;;;;;;;14.90;14.00;;;8.00;99.90;;;;;;5055990;28;20462;-69
2021/09/30 03:30:42;;;;;;;16.60;14.90;;;8.00;99.90;;;;;;5061138;28;20460;-69
2021/09/30 03:33:09;;;;;;;15.27;14.33;;;8.00;99.90;;;;;;5068338;28;20553;-69
2021/09/30 03:35:38;;;;;;;15.80;14.50;;;8.00;99.90;;;;;;5061710;28;20459;-69
2021/09/30 03:38:07;;;;;;;16.77;15.53;;;8.00;99.90;;;;;;5057897;28;20445;-70
2021/09/30 03:40:35;;;;;;;15.97;14.80;;;8.00;99.90;;;;;;5058803;28;20451;-69
2021/09/30 03:43:03;;;;;;;16.77;15.10;;;8.00;99.90;;;;;;5059624;28;20459;-70
2021/09/30 03:45:31;;;;;;;16.67;15.00;;;8.00;99.90;;;;;;5058309;28;20496;-72
2021/09/30 03:47:58;;;;;;;15.70;14.67;;;7.90;99.90;;;;;;5061016;28;20451;-71
2021/09/30 03:50:28;;;;;;;15.40;14.30;;;7.90;99.90;;;;;;5061602;28;20470;-70
2021/09/30 03:53:00;;;;;;;15.00;13.90;;;7.90;99.90;;;;;;5060895;28;20483;-69
2021/09/30 03:55:44;;;;;;;16.33;14.97;;;7.90;99.90;;;;;;5061541;28;20489;-69
2021/09/30 04:00:57;;;;;;;16.60;15.40;;;7.90;99.90;;;;;;5060628;28;20499;-72
2021/09/30 04:03:24;;;;;;;15.93;14.40;;;7.90;99.90;;;;;;5059253;28;20479;-69
2021/09/30 04:05:51;;;;;;;15.43;14.43;;;7.80;99.90;;;;;;5057922;28;20467;-70
2021/09/30 04:08:19;;;;;;;16.37;14.90;;;7.80;99.90;;;;;;5061272;28;20524;-69
2021/09/30 04:10:47;;;;;;;16.63;15.43;;;7.70;99.90;;;;;;5052760;28;20476;-71
2021/09/30 04:13:16;;;;;;;16.90;15.10;;;7.70;99.90;;;;;;5058393;28;21128;-69
2021/09/30 04:15:43;;;;;;;17.10;15.70;;;7.60;99.90;;;;;;5061578;28;20471;-69
2021/09/30 04:18:11;;;;;;;19.17;15.97;;;7.70;99.90;;;;;;5057582;28;20814;-69
2021/09/30 04:20:38;;;;;;;17.40;16.07;;;7.70;99.90;;;;;;5058034;28;20460;-69
2021/09/30 04:23:07;;;;;;;17.60;16.20;;;7.70;99.90;;;;;;5060404;28;20551;-72
2021/09/30 04:25:35;;;;;;;17.43;16.10;;;7.60;99.90;;;;;;5060859;28;20463;-71
2021/09/30 04:28:02;;;;;;;17.07;15.93;;;7.60;99.90;;;;;;5056960;28;20446;-71
2021/09/30 04:30:31;;;;;;;16.63;15.20;;;7.70;99.90;;;;;;5063731;28;20471;-69
2021/09/30 04:32:58;;;;;;;24.90;14.60;;;7.70;99.90;;;;;;5051057;28;20497;-68
2021/09/30 04:35:25;;;;;;;16.60;15.30;;;7.70;99.90;;;;;;5056140;28;20807;-69
2021/09/30 04:37:52;;;;;;;16.53;15.07;;;7.70;99.90;;;;;;5058208;28;20457;-69
2021/09/30 04:40:19;;;;;;;16.00;14.60;;;7.70;99.90;;;;;;5058759;28;20456;-69
2021/09/30 04:42:46;;;;;;;17.60;16.30;;;7.80;99.90;;;;;;5062351;28;20462;-70
2021/09/30 04:45:13;;;;;;;17.73;16.33;;;7.80;99.90;;;;;;5057337;28;20455;-70
2021/09/30 04:47:41;;;;;;;22.00;17.33;;;7.80;99.90;;;;;;5056015;28;20463;-70
2021/09/30 04:50:10;;;;;;;18.70;17.27;;;7.70;99.90;;;;;;5059102;28;20483;-71
2021/09/30 04:52:38;;;;;;;19.60;17.60;;;7.70;99.90;;;;;;5057486;28;20576;-69
2021/09/30 04:55:06;;;;;;;18.60;16.97;;;7.70;99.90;;;;;;5063136;28;20470;-71
2021/09/30 04:57:35;;;;;;;19.33;17.63;;;7.70;99.90;;;;;;5064266;28;21018;-70
2021/09/30 05:00:02;;;;;;;19.43;17.80;;;7.60;99.90;;;;;;5059943;28;20801;-69
2021/09/30 05:02:29;;;;;;;20.43;18.60;;;7.60;99.90;;;;;;5055290;28;20452;-69
2021/09/30 05:04:57;;;;;;;18.77;17.07;;;7.60;99.90;;;;;;5055418;28;20468;-72
2021/09/30 05:07:24;;;;;;;18.47;17.07;;;7.60;99.90;;;;;;5059735;28;20934;-70
2021/09/30 05:09:52;;;;;;;17.97;16.57;;;7.60;99.90;;;;;;5057355;28;20461;-71
2021/09/30 05:12:21;;;;;;;19.27;17.73;;;7.60;99.90;;;;;;5058544;28;20495;-72
2021/09/30 05:14:48;;;;;;;19.43;17.77;;;7.60;99.90;;;;;;5062368;28;20543;-68
2021/09/30 05:17:15;;;;;;;21.43;17.90;;;7.60;99.90;;;;;;5058576;28;20536;-72
2021/09/30 05:19:42;;;;;;;18.50;17.07;;;7.60;99.90;;;;;;5063296;28;20486;-72
2021/09/30 05:22:10;;;;;;;18.20;16.17;;;7.60;99.90;;;;;;5066118;28;20960;-72
2021/09/30 05:24:37;;;;;;;21.23;16.50;;;7.60;99.90;;;;;;5066821;28;20460;-70
2021/09/30 05:27:04;;;;;;;19.03;17.53;;;7.60;99.90;;;;;;5060210;28;20503;-71
2021/09/30 05:29:31;;;;;;;18.57;16.77;;;7.60;99.90;;;;;;5060052;28;20464;-72
2021/09/30 05:31:59;;;;;;;19.03;17.30;;;7.60;99.90;;;;;;5061641;28;20961;-69
2021/09/30 05:34:26;;;;;;;18.40;16.80;;;7.60;99.90;;;;;;5062049;28;20483;-69
2021/09/30 05:36:53;;;;;;;17.10;15.90;;;7.70;99.90;;;;;;5057795;28;20468;-69
2021/09/30 05:39:21;;;;;;;17.57;16.13;;;7.70;99.90;;;;;;5060145;28;20467;-71
2021/09/30 05:41:52;;;;;;;19.27;17.40;;;7.70;99.90;;;;;;5064568;28;20467;-69
2021/09/30 05:44:22;;;;;;;18.20;16.47;;;7.70;99.90;;;;;;5062137;28;20453;-69
2021/09/30 05:46:53;;;;;;;18.17;16.67;;;7.70;99.90;;;;;;5062034;28;20947;-69
2021/09/30 05:49:20;;;;;;;17.43;15.77;;;7.80;99.90;;;;;;5061398;28;20509;-72
2021/09/30 05:51:47;;;;;;;17.53;15.97;;;7.80;99.90;;;;;;5065085;28;20793;-70
2021/09/30 05:54:15;;;;;;;18.20;16.10;;;7.80;99.90;;;;;;5057638;28;20825;-72
2021/09/30 05:56:44;;;;;;;17.40;15.70;;;7.80;99.90;;;;;;5057937;28;20475;-69
2021/09/30 05:59:11;;;;;;;17.50;16.10;;;7.80;99.90;;;;;;5057968;28;20455;-69
2021/09/30 06:10:28;;;;;;;23.77;15.27;;;7.90;99.90;;;;;;5060915;28;20856;-69
2021/09/30 06:13:00;;;;;;;17.00;15.30;;;8.00;99.90;;;;;;5026201;28;20549;-69
2021/09/30 06:15:31;;;;;;;20.93;14.50;;;8.10;99.90;;;;;;5027362;28;20858;-71
2021/09/30 06:17:59;;;;;;;16.70;15.17;;;8.10;99.90;;;;;;5030457;28;20464;-69
2021/09/30 06:20:27;;;;;;;16.90;15.13;;;8.20;99.90;;;;;;5031729;28;20476;-69
2021/09/30 06:22:54;;;;;;;17.47;15.97;;;8.20;99.90;;;;;;5036568;28;20464;-69
2021/09/30 06:25:22;;;;;;;17.23;15.60;;;8.20;99.90;;;;;;5030437;28;20468;-69
2021/09/30 06:27:49;;;;;;;17.00;15.40;;;8.30;99.90;;;;;;5029299;28;20468;-69
2021/09/30 06:30:17;;;;;;;19.43;15.90;;;8.30;99.90;;;;;;5031925;28;20474;-70
2021/09/30 06:32:44;;;;;;;15.30;14.30;;;8.40;99.90;;;;;;5030389;28;20580;-72
2021/09/30 06:35:12;;;;;;;16.83;15.37;;;8.40;99.90;;;;;;5032770;28;20968;-70
2021/09/30 06:37:39;;;;;;;14.97;13.97;;;8.50;99.90;;;;;;5034679;28;20479;-69
2021/09/30 06:40:07;;;;;;;16.20;14.70;;;8.50;99.90;;;;;;5033759;28;20493;-69
2021/09/30 06:42:34;;;;;;;14.03;13.23;;;8.60;99.90;;;;;;5035849;28;20462;-69
2021/09/30 06:45:02;;;;;;;16.30;14.93;;;8.60;99.90;;;;;;5031069;28;20814;-71
2021/09/30 06:47:36;;;;;;;17.80;16.17;;;8.60;99.90;;;;;;5034292;28;21001;-70
2021/09/30 06:50:05;;;;;;;15.80;14.23;;;8.60;99.90;;;;;;5035929;28;20998;-71
2021/09/30 06:52:32;;;;;;;15.50;14.40;;;8.70;99.90;;;;;;5032559;28;21759;-70
2021/09/30 06:54:59;;;;;;;16.10;14.83;;;8.70;99.90;;;;;;5033801;28;20463;-70
2021/09/30 06:57:27;;;;;;;15.90;14.60;;;8.80;99.90;;;;;;5037061;28;20465;-72
2021/09/30 06:59:57;;;;;;;16.87;15.67;;;8.90;99.90;;;;;;5036764;28;20478;-69
2021/09/30 07:02:24;;;;;;;17.03;15.63;;;9.00;99.90;;;;;;5032847;28;20460;-70
2021/09/30 07:04:52;;;;;;;17.33;15.93;;;9.00;99.90;;;;;;5032817;28;20471;-72
2021/09/30 07:07:20;;;;;;;18.13;16.73;;;9.10;99.90;;;;;;5031575;28;20553;-70
2021/09/30 07:09:47;;;;;;;18.20;16.73;;;9.20;99.90;;;;;;5033522;28;20862;-72
2021/09/30 07:12:15;;;;;;;16.43;15.27;;;9.30;99.90;;;;;;5050143;28;20494;-72
2021/09/30 07:14:42;;;;;;;17.00;15.93;;;9.40;99.90;;;;;;5049997;28;20497;-69
2021/09/30 07:17:09;;;;;;;16.80;15.80;;;9.40;99.90;;;;;;5049573;28;21010;-73
2021/09/30 07:19:36;;;;;;;17.93;16.53;;;9.50;99.90;;;;;;5054857;28;20471;-71
2021/09/30 07:22:07;;;;;;;19.33;16.30;;;9.60;99.90;;;;;;5050756;28;20475;-71
2021/09/30 07:24:37;;;;;;;20.70;17.37;;;9.70;99.90;;;;;;5053428;28;20458;-70
2021/09/30 07:27:05;;;;;;;17.97;16.83;;;9.80;99.90;;;;;;5055435;28;20454;-70
2021/09/30 07:29:32;;;;;;;18.00;16.17;;;9.90;99.90;;;;;;5052282;28;20961;-70
2021/09/30 07:31:59;;;;;;;21.67;15.50;;;10.10;99.90;;;;;;5049019;28;21063;-70
2021/09/30 07:34:27;;;;;;;17.17;15.87;;;10.20;99.90;;;;;;5051806;28;20516;-73
2021/09/30 07:36:53;;;;;;;18.43;17.23;;;10.30;99.90;;;;;;5051726;28;20456;-69
2021/09/30 07:39:23;;;;;;;16.50;15.20;;;10.40;99.90;;;;;;5049923;28;20494;-70
2021/09/30 07:41:51;;;;;;;17.00;15.80;;;10.40;99.90;;;;;;5053890;28;20460;-73
2021/09/30 07:44:19;;;;;;;17.50;16.30;;;10.50;99.90;;;;;;5050880;28;20470;-70
2021/09/30 07:46:48;;;;;;;17.10;15.90;;;10.60;99.90;;;;;;5050788;28;20799;-69
2021/09/30 07:49:15;;;;;;;18.67;16.83;;;10.60;99.90;;;;;;5053535;28;20710;-71
2021/09/30 07:51:42;;;;;;;17.87;16.47;;;10.80;99.90;;;;;;5054949;28;20455;-70
2021/09/30 07:54:10;;;;;;;17.63;16.47;;;10.90;99.90;;;;;;5054123;28;20494;-70
2021/09/30 07:56:39;;;;;;;17.50;16.10;;;11.10;99.90;;;;;;5051486;28;21034;-70
2021/09/30 07:59:07;;;;;;;19.70;17.67;;;11.30;99.90;;;;;;5049439;28;20463;-70
2021/09/30 08:01:34;;;;;;;16.83;15.73;;;11.40;99.90;;;;;;5056325;28;20884;-69
2021/09/30 08:04:03;;;;;;;17.40;16.07;;;11.50;99.90;;;;;;5053743;28;20945;-70
2021/09/30 08:06:31;;;;;;;16.57;15.47;;;11.70;99.90;;;;;;5053633;28;20455;-69
2021/09/30 08:08:58;;;;;;;17.20;15.60;;;11.60;99.90;;;;;;5054815;28;20463;-70
2021/09/30 08:11:27;;;;;;;18.63;16.93;;;11.70;99.90;;;;;;5053174;28;20495;-72
2021/09/30 08:13:56;;;;;;;16.20;15.20;;;11.70;99.90;;;;;;5052400;28;20589;-69
2021/09/30 08:16:23;;;;;;;16.83;15.77;;;11.60;99.90;;;;;;5051201;28;20958;-70
2021/09/30 08:18:51;;;;;;;17.50;16.20;;;11.80;99.90;;;;;;5053371;28;21030;-70
2021/09/30 08:21:18;;;;;;;17.33;16.23;;;11.90;99.90;;;;;;5053516;28;20459;-70
2021/09/30 08:23:45;;;;;;;18.90;16.90;;;12.00;99.90;;;;;;5039876;28;21052;-69
2021/09/30 08:26:13;;;;;;;17.57;16.27;;;12.10;99.90;;;;;;5046729;28;20454;-70
2021/09/30 08:28:41;;;;;;;16.50;15.40;;;12.20;99.90;;;;;;5054200;28;21330;-70
2021/09/30 08:31:09;;;;;;;17.07;16.07;;;12.20;99.90;;;;;;5058553;28;20471;-70
2021/09/30 08:33:40;;;;;;;17.33;15.77;;;12.20;99.90;;;;;;5053718;28;20489;-69
2021/09/30 08:36:44;;;;;;;16.70;15.50;;;12.20;99.90;;;;;;5050065;28;20981;-70
2021/09/30 08:39:11;;;;;;;17.47;16.00;;;12.20;99.90;;;;;;5043227;28;20467;-69
2021/09/30 08:41:38;;;;;;;17.40;16.30;;;12.10;99.90;;;;;;5049024;28;21009;-69
2021/09/30 08:44:06;;;;;;;17.70;16.60;;;12.20;99.90;;;;;;5053356;28;20470;-73
2021/09/30 08:46:36;;;;;;;16.93;15.83;;;12.20;99.90;;;;;;5048133;28;20460;-69
2021/09/30 08:49:04;;;;;;;17.03;15.90;;;12.30;99.90;;;;;;5050282;28;20886;-69
2021/09/30 08:51:35;;;;;;;17.87;16.67;;;12.30;99.90;;;;;;5047717;28;20461;-70
2021/09/30 08:54:02;;;;;;;16.07;15.10;;;12.40;99.90;;;;;;5052445;28;21177;-69
2021/09/30 08:56:33;;;;;;;16.37;15.37;;;12.40;99.90;;;;;;5055532;28;20819;-72
2021/09/30 08:59:13;;;;;;;15.73;14.83;;;12.50;99.90;;;;;;5062398;28;20495;-70
2021/09/30 09:01:46;;;;;;;16.03;14.93;;;12.60;99.90;;;;;;5052984;28;20468;-69
2021/09/30 09:04:22;;;;;;;17.23;15.67;;;12.60;99.90;;;;;;5056447;28;20872;-70
2021/09/30 09:06:49;;;;;;;17.73;15.90;;;12.70;99.90;;;;;;5049133;28;20467;-70
2021/09/30 09:09:21;;;;;;;16.83;15.63;;;12.80;99.90;;;;;;5051295;28;20557;-69
2021/09/30 09:11:49;;;;;;;16.07;15.10;;;12.90;99.90;;;;;;5052947;28;20530;-71
2021/09/30 09:14:24;;;;;;;16.67;15.57;;;13.00;99.90;;;;;;5053396;28;20485;-70
2021/09/30 09:17:04;;;;;;;16.10;15.17;;;13.10;99.90;;;;;;5055494;28;20482;-71
2021/09/30 09:19:34;;;;;;;18.60;15.67;;;13.20;99.90;;;;;;5058891;28;20467;-69
2021/09/30 09:22:11;;;;;;;16.07;14.97;;;13.40;99.90;;;;;;5051404;28;20463;-69
2021/09/30 09:24:59;;;;;;;15.77;14.80;;;13.50;99.90;;;;;;5051161;28;20961;-70
2021/09/30 09:27:43;;;;;;;16.93;15.10;;;13.40;99.90;;;;;;5054667;28;20829;-72
2021/09/30 09:30:28;;;;;;;15.37;14.57;;;13.60;99.90;;;;;;5059378;28;20467;-69
2021/09/30 09:33:09;;;;;;;17.03;15.90;;;13.80;99.90;;;;;;5053437;28;20467;-70
2021/09/30 09:35:57;;;;;;;16.00;15.10;;;14.00;99.90;;;;;;5051451;28;20574;-72
2021/09/30 09:38:28;;;;;;;16.73;15.27;;;14.20;99.90;;;;;;5057836;28;20998;-70
2021/09/30 09:40:58;;;;;;;16.17;14.90;;;14.50;99.90;;;;;;5057623;28;20482;-72
2021/09/30 09:43:35;;;;;;;16.20;15.40;;;14.70;99.90;;;;;;5052508;28;20463;-71
2021/09/30 09:46:04;;;;;;;16.50;15.40;;;14.60;99.90;;;;;;5051872;28;20503;-69
2021/09/30 09:48:33;;;;;;;15.77;14.70;;;14.50;99.90;;;;;;5055795;28;20881;-71
2021/09/30 09:51:03;;;;;;;16.00;14.90;;;14.70;99.90;;;;;;5050333;28;20555;-71
2021/09/30 09:53:34;;;;;;;16.47;15.57;;;14.90;99.90;;;;;;5055612;28;20829;-70
2021/09/30 09:56:18;;;;;;;16.67;15.00;;;15.30;99.90;;;;;;5051388;28;20543;-70
2021/09/30 09:58:50;;;;;;;18.07;16.53;;;15.90;99.90;;;;;;5051679;28;21101;-70
2021/09/30 10:01:23;;;;;;;15.57;14.63;;;16.10;99.90;;;;;;5059400;28;20451;-70
2021/09/30 10:03:55;;;;;;;16.33;15.20;;;16.00;99.90;;;;;;5045665;28;20464;-70
2021/09/30 10:06:22;;;;;;;16.97;15.80;;;16.00;99.90;;;;;;5056434;28;20847;-70
2021/09/30 10:08:50;;;;;;;16.03;15.10;;;15.90;99.90;;;;;;5053124;28;20834;-69
2021/09/30 10:11:17;;;;;;;15.63;14.13;;;15.70;99.90;;;;;;5052896;28;20493;-71
2021/09/30 10:13:45;;;;;;;19.27;17.73;;;15.50;99.90;;;;;;5056482;28;20686;-72
2021/09/30 10:16:16;;;;;;;16.30;15.50;;;15.60;99.90;;;;;;5054213;28;20505;-70
2021/09/30 10:18:43;;;;;;;16.20;14.93;;;15.80;99.90;;;;;;5058247;28;20447;-71
2021/09/30 10:21:11;;;;;;;17.20;15.70;;;16.00;99.90;;;;;;5055553;28;22145;-70
2021/09/30 10:23:39;;;;;;;17.13;15.60;;;16.40;99.90;;;;;;5056551;28;20467;-71
2021/09/30 10:26:15;;;;;;;17.03;15.83;;;16.10;99.90;;;;;;5052141;28;20594;-71
2021/09/30 10:28:44;;;;;;;16.93;15.93;;;16.10;99.90;;;;;;5054364;28;20471;-71
2021/09/30 10:31:32;;;;;;;17.00;15.57;;;16.80;99.90;;;;;;5055255;28;20956;-72
2021/09/30 10:34:03;;;;;;;15.87;14.83;;;17.10;99.90;;;;;;5056516;28;20490;-69
2021/09/30 10:36:37;;;;;;;15.90;15.00;;;17.50;99.90;;;;;;5056527;28;20945;-70
2021/09/30 10:39:24;;;;;;;15.53;14.53;;;17.60;99.90;;;;;;5056330;28;20452;-71
2021/09/30 10:41:52;;;;;;;16.30;15.10;;;17.70;99.90;;;;;;5054472;28;21461;-72
2021/09/30 10:44:21;;;;;;;16.37;15.20;;;17.40;99.90;;;;;;5050807;28;20484;-70
2021/09/30 10:46:57;;;;;;;16.53;15.50;;;17.20;99.90;;;;;;5050937;28;22324;-71
2021/09/30 10:49:42;;;;;;;15.87;14.50;;;16.80;99.90;;;;;;5053065;28;20459;-72
2021/09/30 10:52:31;;;;;;;15.87;14.83;;;17.00;99.90;;;;;;5057256;28;20471;-70
2021/09/30 10:55:34;;;;;;;16.70;15.30;;;17.20;99.90;;;;;;5054550;28;20927;-69
2021/09/30 10:58:03;;;;;;;16.67;15.30;;;17.70;99.90;;;;;;5055673;28;20463;-70
2021/09/30 11:00:45;;;;;;;15.90;15.10;;;17.60;99.90;;;;;;5049437;28;20455;-70
2021/09/30 11:03:21;;;;;;;15.97;14.77;;;17.50;99.90;;;;;;5049815;28;20480;-70
2021/09/30 11:06:16;;;;;;;15.63;14.50;;;17.60;99.90;;;;;;5048664;28;20933;-70
2021/09/30 11:08:48;;;;;;;16.40;15.07;;;17.20;99.90;;;;;;5049280;28;20491;-70
2021/09/30 11:11:22;;;;;;;15.23;14.40;;;16.90;99.90;;;;;;5052001;28;20479;-69
2021/09/30 11:14:04;;;;;;;16.70;15.57;;;17.00;99.90;;;;;;5054177;28;20459;-70
2021/09/30 11:16:36;;;;;;;16.07;15.10;;;17.00;99.90;;;;;;5045731;28;20850;-69
2021/09/30 11:19:05;;;;;;;15.67;14.63;;;16.90;99.90;;;;;;5051870;28;20466;-69
2021/09/30 11:21:47;;;;;;;16.20;15.20;;;16.70;99.90;;;;;;5050694;28;20459;-70
2021/09/30 11:24:50;;;;;;;15.07;13.87;;;16.60;99.90;;;;;;5054123;28;20456;-72
2021/09/30 11:27:32;;;;;;;14.90;14.00;;;17.10;99.90;;;;;;5040545;28;20925;-70
2021/09/30 11:30:24;;;;;;;16.63;15.23;;;17.00;99.90;;;;;;5058880;28;20490;-71
2021/09/30 11:32:59;;;;;;;15.83;14.70;;;17.10;99.90;;;;;;5048459;28;20455;-69
2021/09/30 11:35:26;;;;;;;15.53;14.63;;;16.90;99.90;;;;;;5050888;28;20585;-70
2021/09/30 11:37:53;;;;;;;16.10;15.10;;;16.70;99.90;;;;;;5050572;28;20737;-70
2021/09/30 11:40:22;;;;;;;16.37;15.07;;;16.90;99.90;;;;;;5048752;28;20837;-69
2021/09/30 11:42:55;;;;;;;16.17;15.30;;;17.10;99.90;;;;;;5055764;28;20468;-69
2021/09/30 11:45:26;;;;;;;16.33;15.33;;;17.00;99.90;;;;;;5053230;28;20796;-69
2021/09/30 11:48:02;;;;;;;17.30;15.73;;;17.10;99.90;;;;;;5055598;28;20459;-72
2021/09/30 11:50:29;;;;;;;15.57;14.60;;;17.40;99.90;;;;;;5054225;28;21126;-72
2021/09/30 11:53:03;;;;;;;15.63;14.73;;;17.80;99.90;;;;;;5052512;28;20913;-69
2021/09/30 11:55:34;;;;;;;15.90;14.77;;;18.20;99.90;;;;;;5045641;28;20488;-69
2021/09/30 11:58:04;;;;;;;16.03;14.87;;;18.50;99.90;;;;;;5054330;28;20452;-70
2021/09/30 12:00:33;;;;;;;15.60;14.90;;;18.90;99.90;;;;;;5056548;28;20906;-72
2021/09/30 12:03:02;;;;;;;15.60;14.50;;;18.90;99.90;;;;;;5052397;28;20524;-69
2021/09/30 12:05:32;;;;;;;15.27;14.17;;;19.20;99.90;;;;;;5049369;28;20463;-69
2021/09/30 12:08:02;;;;;;;16.13;15.10;;;19.20;99.90;;;;;;5050450;28;20459;-69
2021/09/30 12:10:34;;;;;;;14.93;13.97;;;19.10;99.90;;;;;;5054430;28;20460;-69
2021/09/30 12:13:12;;;;;;;14.57;13.63;;;19.00;99.90;;;;;;5048350;28;20539;-69
2021/09/30 12:15:39;;;;;;;15.50;14.40;;;18.60;99.90;;;;;;5055290;28;20499;-69
2021/09/30 12:18:19;;;;;;;14.70;13.60;;;18.70;99.90;;;;;;5053360;28;20459;-70
2021/09/30 12:20:51;;;;;;;14.90;14.00;;;18.70;99.90;;;;;;5052042;28;20462;-69
2021/09/30 12:23:19;;;;;;;15.53;14.37;;;18.50;99.90;;;;;;5053138;28;20447;-69
2021/09/30 12:25:48;;;;;;;15.57;14.07;;;18.50;99.90;;;;;;5059099;28;20546;-69
2021/09/30 12:28:15;;;;;;;15.20;13.90;;;18.50;99.90;;;;;;5058575;28;20451;-69
2021/09/30 12:30:43;;;;;;;13.90;13.13;;;17.80;99.90;;;;;;5051635;28;20483;-70
2021/09/30 12:33:10;;;;;;;15.10;13.77;;;18.00;99.90;;;;;;5054807;28;20470;-69
2021/09/30 12:35:39;;;;;;;14.33;13.30;;;18.10;99.90;;;;;;5054379;28;20491;-69
2021/09/30 12:38:12;;;;;;;14.93;13.57;;;18.30;99.90;;;;;;5054193;28;20543;-69
2021/09/30 12:40:41;;;;;;;15.80;14.43;;;17.90;99.90;;;;;;5056425;28;20941;-70
2021/09/30 12:43:12;;;;;;;16.40;15.07;;;17.80;99.90;;;;;;5058863;28;20465;-69
2021/09/30 12:45:41;;;;;;;16.77;15.33;;;17.60;99.90;;;;;;5053550;28;20458;-69
2021/09/30 12:48:11;;;;;;;14.67;13.77;;;17.30;99.90;;;;;;5051512;28;20455;-69
2021/09/30 12:50:42;;;;;;;16.90;14.83;;;16.80;99.90;;;;;;5059292;28;21036;-69
2021/09/30 12:53:10;;;;;;;15.27;14.27;;;16.50;99.90;;;;;;5058854;28;20465;-68
2021/09/30 12:55:37;;;;;;;16.50;15.30;;;16.80;99.90;;;;;;5055423;28;20486;-68
2021/09/30 12:58:05;;;;;;;15.20;14.03;;;17.00;99.90;;;;;;5055715;28;20460;-71
2021/09/30 13:00:36;;;;;;;15.07;13.97;;;17.20;99.90;;;;;;5054003;28;20459;-70
2021/09/30 13:03:14;;;;;;;15.50;14.60;;;17.00;99.90;;;;;;5058252;28;20467;-68
2021/09/30 13:05:50;;;;;;;14.43;13.63;;;16.80;99.90;;;;;;5059596;28;20490;-68
2021/09/30 13:08:40;;;;;;;16.03;14.93;;;16.60;99.90;;;;;;5062507;28;20477;-71
2021/09/30 13:11:24;;;;;;;15.90;14.07;;;16.40;99.90;;;;;;5058488;28;20482;-68
2021/09/30 13:14:14;;;;;;;16.13;15.10;;;16.20;99.90;;;;;;5060139;28;20458;-69
2021/09/30 13:16:43;;;;;;;15.37;14.10;;;16.20;99.90;;;;;;5051705;28;21008;-69
2021/09/30 13:19:10;;;;;;;15.30;14.30;;;16.10;99.90;;;;;;5054580;28;20463;-69
2021/09/30 13:21:59;;;;;;;15.47;14.57;;;16.20;99.90;;;;;;5051393;28;20463;-70
2021/09/30 13:24:27;;;;;;;15.67;14.47;;;15.80;99.90;;;;;;5049580;28;20458;-71
2021/09/30 13:26:54;;;;;;;15.67;14.87;;;15.90;99.90;;;;;;5051139;28;20464;-71
2021/09/30 13:29:22;;;;;;;16.67;15.10;;;15.90;99.90;;;;;;5062337;28;20463;-69
2021/09/30 13:31:50;;;;;;;16.10;15.10;;;15.90;99.90;;;;;;5050791;28;20463;-68
2021/09/30 13:34:18;;;;;;;16.47;14.97;;;16.00;99.90;;;;;;5056670;28;20462;-68
2021/09/30 13:36:45;;;;;;;14.93;14.03;;;16.10;99.90;;;;;;5053172;28;20521;-70
2021/09/30 13:39:12;;;;;;;15.13;13.60;;;15.90;99.90;;;;;;5056078;28;20468;-69
2021/09/30 13:41:40;;;;;;;14.37;13.60;;;15.80;99.90;;;;;;5055500;28;20463;-71
2021/09/30 13:44:06;;;;;;;15.77;14.40;;;15.90;99.90;;;;;;5052819;28;20470;-68
2021/09/30 13:46:33;;;;;;;15.07;14.10;;;16.10;99.90;;;;;;5055763;28;20751;-68
2021/09/30 13:49:02;;;;;;;14.70;13.90;;;16.40;99.90;;;;;;5049266;28;20463;-70
2021/09/30 13:51:30;;;;;;;14.93;14.03;;;16.40;99.90;;;;;;5052178;28;20520;-70
2021/09/30 13:53:57;;;;;;;14.70;13.73;;;16.50;99.90;;;;;;5054875;28;20820;-69
2021/09/30 13:56:26;;;;;;;14.70;13.70;;;16.60;99.90;;;;;;5055499;28;20500;-69
2021/09/30 13:58:54;;;;;;;15.80;14.63;;;16.70;99.90;;;;;;5058342;28;20467;-69
2021/09/30 14:01:21;;;;;;;15.73;14.83;;;16.60;99.90;;;;;;5058418;28;20464;-70
2021/09/30 14:03:49;;;;;;;15.93;14.90;;;17.10;99.90;;;;;;5059195;28;20474;-71
2021/09/30 14:06:18;;;;;;;15.50;14.67;;;17.20;99.90;;;;;;5056934;28;20460;-68
2021/09/30 14:08:45;;;;;;;14.60;13.70;;;17.40;99.90;;;;;;5048852;28;20947;-69
2021/09/30 14:11:14;;;;;;;15.40;14.40;;;17.70;99.90;;;;;;5056879;28;20487;-68
2021/09/30 14:13:41;;;;;;;15.23;14.13;;;17.50;99.90;;;;;;5051517;28;20688;-68
2021/09/30 14:16:09;;;;;;;15.13;14.33;;;17.60;99.90;;;;;;5050148;28;20475;-69
2021/09/30 14:18:36;;;;;;;17.63;15.97;;;17.60;99.90;;;;;;5045438;28;20509;-69
2021/09/30 14:21:04;;;;;;;16.10;15.10;;;17.50;99.90;;;;;;5047404;28;20497;-68
2021/09/30 14:23:33;;;;;;;18.07;16.23;;;17.10;99.90;;;;;;5059020;28;20462;-69
2021/09/30 14:26:00;;;;;;;16.13;15.20;;;17.20;99.90;;;;;;5053179;28;21094;-71
2021/09/30 16:46:39;;;;;;;17.73;15.87;;;15.20;99.90;;;;;;4867654;29;20480;-69
2021/09/30 16:49:07;;;;;;;32.53;30.03;;;15.20;99.90;;;;;;4895128;28;20465;-69
2021/09/30 16:51:34;;;;;;;26.60;24.27;;;15.20;99.90;;;;;;4973134;28;20502;-70
2021/09/30 16:54:01;;;;;;;51.43;46.73;;;15.10;99.90;;;;;;5047554;28;20954;-72
2021/09/30 16:56:28;;;;;;;24.17;22.30;;;15.00;99.90;;;;;;5052183;28;20479;-70
2021/09/30 16:58:55;;;;;;;20.20;18.60;;;14.80;99.90;;;;;;5051038;28;20451;-69
2021/09/30 17:01:22;;;;;;;16.63;15.00;;;14.80;99.90;;;;;;5053169;28;20576;-70
2021/09/30 17:03:48;;;;;;;17.43;16.37;;;14.80;99.90;;;;;;5056945;28;20462;-69
2021/09/30 17:06:17;;;;;;;20.40;18.97;;;14.80;99.90;;;;;;5054713;28;20463;-71
2021/09/30 17:08:43;;;;;;;15.70;14.63;;;14.70;99.90;;;;;;5055212;28;20452;-68
2021/09/30 17:11:15;;;;;;;16.97;15.80;;;14.80;99.90;;;;;;5053625;28;21165;-69
2021/09/30 17:13:42;;;;;;;16.50;15.40;;;14.70;99.90;;;;;;5049020;28;20462;-69
2021/09/30 17:16:09;;;;;;;16.57;15.60;;;14.50;99.90;;;;;;5058972;28;20965;-68
2021/09/30 17:18:37;;;;;;;16.53;15.10;;;14.40;99.90;;;;;;5058926;28;20452;-69
2021/09/30 17:21:04;;;;;;;16.00;14.60;;;14.50;99.90;;;;;;5059244;28;20466;-69
2021/09/30 17:23:32;;;;;;;16.07;14.97;;;14.40;99.90;;;;;;5060645;28;20455;-69
2021/09/30 17:26:00;;;;;;;15.40;14.40;;;14.40;99.90;;;;;;5060296;28;20470;-71
2021/09/30 17:28:28;;;;;;;24.67;22.40;;;14.30;99.90;;;;;;5061301;28;20459;-70
2021/09/30 17:30:54;;;;;;;17.63;16.20;;;14.10;99.90;;;;;;5054798;28;20462;-71
2021/09/30 17:33:21;;;;;;;20.90;14.60;;;14.10;99.90;;;;;;5055695;28;20467;-69
2021/09/30 17:35:48;;;;;;;15.33;14.30;;;14.00;99.90;;;;;;5057225;28;20813;-69